createdAt,value
2018-06-23T00:00:02.776Z,11.9
2018-06-23T00:00:53.077Z,11.9
2018-06-23T00:01:43.176Z,11.9
2018-06-23T00:02:33.026Z,11.9
2018-06-23T00:03:23.303Z,11.9
2018-06-23T00:04:13.371Z,11.9
2018-06-23T00:05:03.130Z,11.9
2018-06-23T00:05:53.215Z,11.9
2018-06-23T00:06:43.532Z,11.9
2018-06-23T00:07:33.612Z,11.9
2018-06-23T00:08:23.403Z,11.8
2018-06-23T00:09:13.731Z,11.9
2018-06-23T00:10:03.795Z,11.8
2018-06-23T00:10:53.590Z,11.8
2018-06-23T00:11:43.913Z,11.8
2018-06-23T00:12:33.685Z,11.8
2018-06-23T00:13:23.775Z,11.8
2018-06-23T00:14:13.578Z,11.8
2018-06-23T00:15:03.886Z,11.8
2018-06-23T00:15:54.275Z,11.8
2018-06-23T00:16:44.030Z,11.8
2018-06-23T00:17:34.362Z,11.8
2018-06-23T00:18:23.872Z,11.8
2018-06-23T00:19:14.229Z,11.8
2018-06-23T00:20:04.317Z,11.8
2018-06-23T00:20:54.339Z,11.8
2018-06-23T00:21:44.716Z,11.8
2018-06-23T00:22:34.755Z,11.8
2018-06-23T00:23:23.971Z,11.8
2018-06-23T00:24:14.619Z,11.8
2018-06-23T00:25:04.962Z,11.8
2018-06-23T00:25:55.016Z,11.8
2018-06-23T00:26:44.235Z,11.8
2018-06-23T00:27:34.312Z,11.8
2018-06-23T00:28:25.232Z,11.8
2018-06-23T00:29:14.999Z,11.8
2018-06-23T00:30:05.322Z,11.8
2018-06-23T00:30:55.101Z,11.8
2018-06-23T00:31:45.505Z,11.8
2018-06-23T00:32:34.942Z,11.8
2018-06-23T00:33:24.740Z,11.8
2018-06-23T00:34:15.363Z,11.8
2018-06-23T00:35:05.696Z,11.8
2018-06-23T00:35:55.756Z,11.8
2018-06-23T00:36:45.873Z,11.8
2018-06-23T00:37:35.625Z,11.8
2018-06-23T00:38:25.677Z,11.8
2018-06-23T00:39:15.755Z,11.8
2018-06-23T00:40:06.096Z,11.8
2018-06-23T00:40:55.876Z,11.8
2018-06-23T00:41:45.941Z,11.8
2018-06-23T00:42:36.008Z,11.8
2018-06-23T00:43:26.346Z,11.8
2018-06-23T00:44:16.420Z,11.8
2018-06-23T00:45:06.481Z,11.8
2018-06-23T00:45:56.549Z,11.9
2018-06-23T00:46:46.588Z,11.9
2018-06-23T00:47:36.683Z,11.9
2018-06-23T00:48:26.147Z,11.9
2018-06-23T00:49:16.516Z,11.9
2018-06-23T00:50:06.561Z,11.9
2018-06-23T00:50:56.358Z,11.9
2018-06-23T00:51:46.973Z,11.9
2018-06-23T00:52:37.050Z,11.9
2018-06-23T00:53:26.557Z,11.9
2018-06-23T00:54:17.186Z,11.9
2018-06-23T00:55:07.236Z,11.8
2018-06-23T00:55:57.282Z,11.9
2018-06-23T00:56:46.816Z,11.8
2018-06-23T00:57:37.402Z,11.9
2018-06-23T00:58:27.492Z,11.8
2018-06-23T00:59:17.294Z,11.8
2018-06-23T01:00:07.641Z,11.8
2018-06-23T01:00:57.663Z,11.8
2018-06-23T01:01:47.731Z,11.8
2018-06-23T01:02:37.808Z,11.8
2018-06-23T01:03:27.578Z,11.8
2018-06-23T01:04:17.922Z,11.9
2018-06-23T01:05:07.461Z,11.8
2018-06-23T01:05:57.793Z,11.8
2018-06-23T01:06:48.093Z,11.8
2018-06-23T01:07:37.626Z,11.8
2018-06-23T01:08:28.257Z,11.8
2018-06-23T01:09:18.029Z,11.8
2018-06-23T01:10:07.538Z,11.8
2018-06-23T01:10:57.903Z,11.8
2018-06-23T01:11:47.679Z,11.8
2018-06-23T01:12:37.991Z,11.7
2018-06-23T01:13:28.376Z,11.8
2018-06-23T01:14:18.147Z,11.7
2018-06-23T01:15:08.504Z,11.7
2018-06-23T01:15:58.840Z,11.6
2018-06-23T01:16:48.891Z,11.6
2018-06-23T01:17:38.966Z,11.6
2018-06-23T01:18:28.993Z,11.7
2018-06-23T01:19:19.064Z,11.7
2018-06-23T01:20:08.871Z,11.6
2018-06-23T01:20:58.634Z,11.6
2018-06-23T01:21:49.280Z,11.6
2018-06-23T01:22:39.319Z,11.5
2018-06-23T01:23:29.401Z,11.5
2018-06-23T01:24:19.445Z,11.5
2018-06-23T01:25:09.544Z,11.4
2018-06-23T01:25:59.319Z,11.4
2018-06-23T01:26:48.828Z,11.4
2018-06-23T01:27:39.700Z,11.4
2018-06-23T01:28:29.508Z,11.3
2018-06-23T01:29:19.577Z,11.4
2018-06-23T01:30:09.350Z,11.3
2018-06-23T01:30:59.701Z,11.3
2018-06-23T01:31:50.019Z,11.3
2018-06-23T01:32:40.069Z,11.3
2018-06-23T01:33:30.132Z,11.3
2018-06-23T01:34:20.207Z,11.3
2018-06-23T01:35:10.286Z,11.3
2018-06-23T01:36:00.324Z,11.3
2018-06-23T01:36:50.155Z,11.3
2018-06-23T01:37:40.457Z,11.3
2018-06-23T01:38:29.697Z,11.3
2018-06-23T01:39:20.041Z,11.3
2018-06-23T01:40:10.384Z,11.3
2018-06-23T01:41:00.462Z,11.3
2018-06-23T01:41:50.243Z,11.3
2018-06-23T01:42:40.045Z,11.3
2018-06-23T01:43:30.947Z,11.3
2018-06-23T01:44:20.996Z,11.3
2018-06-23T01:45:11.073Z,11.3
2018-06-23T01:46:00.558Z,11.3
2018-06-23T01:46:50.890Z,11.3
2018-06-23T01:47:40.951Z,11.3
2018-06-23T01:48:31.349Z,11.3
2018-06-23T01:49:21.357Z,11.3
2018-06-23T01:50:10.881Z,11.3
2018-06-23T01:51:01.248Z,11.3
2018-06-23T01:51:51.331Z,11.3
2018-06-23T01:52:41.628Z,11.3
2018-06-23T01:53:31.701Z,11.3
2018-06-23T01:54:21.478Z,11.3
2018-06-23T01:55:11.540Z,11.3
2018-06-23T01:56:01.590Z,11.3
2018-06-23T01:56:51.752Z,11.3
2018-06-23T01:57:41.992Z,11.3
2018-06-23T01:58:31.642Z,11.3
2018-06-23T01:59:21.852Z,11.2
2018-06-23T02:00:11.654Z,11.2
2018-06-23T02:01:02.273Z,11.2
2018-06-23T02:01:52.320Z,11.2
2018-06-23T02:02:42.437Z,11.3
2018-06-23T02:03:32.467Z,11.3
2018-06-23T02:04:22.232Z,11.3
2018-06-23T02:05:11.739Z,11.3
2018-06-23T02:06:02.099Z,11.3
2018-06-23T02:06:52.757Z,11.3
2018-06-23T02:07:42.753Z,11.3
2018-06-23T02:08:32.848Z,11.3
2018-06-23T02:09:22.333Z,11.3
2018-06-23T02:10:12.118Z,11.3
2018-06-23T02:11:03.029Z,11.3
2018-06-23T02:11:53.121Z,11.3
2018-06-23T02:12:43.211Z,11.3
2018-06-23T02:13:33.252Z,11.3
2018-06-23T02:14:23.332Z,11.3
2018-06-23T02:15:12.503Z,11.3
2018-06-23T02:16:03.127Z,11.3
2018-06-23T02:16:53.178Z,11.3
2018-06-23T02:17:43.534Z,11.3
2018-06-23T02:18:33.579Z,11.3
2018-06-23T02:19:23.662Z,11.3
2018-06-23T02:20:13.709Z,11.3
2018-06-23T02:21:03.516Z,11.3
2018-06-23T02:21:53.289Z,11.3
2018-06-23T02:22:43.924Z,11.3
2018-06-23T02:23:33.962Z,11.3
2018-06-23T02:24:23.759Z,11.3
2018-06-23T02:25:14.111Z,11.3
2018-06-23T02:26:03.592Z,11.3
2018-06-23T02:26:54.211Z,11.3
2018-06-23T02:27:44.289Z,11.3
2018-06-23T02:28:34.077Z,11.3
2018-06-23T02:29:24.226Z,11.3
2018-06-23T02:30:13.660Z,11.3
2018-06-23T02:31:04.560Z,11.3
2018-06-23T02:31:54.624Z,11.3
2018-06-23T02:32:44.401Z,11.3
2018-06-23T02:33:34.779Z,11.3
2018-06-23T02:34:24.524Z,11.3
2018-06-23T02:35:14.636Z,11.3
2018-06-23T02:36:04.936Z,11.3
2018-06-23T02:36:54.968Z,11.3
2018-06-23T02:37:44.844Z,11.3
2018-06-23T02:38:35.126Z,11.3
2018-06-23T02:39:24.631Z,11.3
2018-06-23T02:40:14.692Z,11.3
2018-06-23T02:41:04.771Z,11.3
2018-06-23T02:41:55.091Z,11.3
2018-06-23T02:42:45.443Z,11.2
2018-06-23T02:43:35.524Z,11.2
2018-06-23T02:44:24.982Z,11.2
2018-06-23T02:45:15.607Z,11.2
2018-06-23T02:46:05.714Z,11.2
2018-06-23T02:46:55.222Z,11.2
2018-06-23T02:47:45.836Z,11.2
2018-06-23T02:48:35.593Z,11.2
2018-06-23T02:49:25.959Z,11.2
2018-06-23T02:50:16.023Z,11.2
2018-06-23T02:51:05.508Z,11.2
2018-06-23T02:51:55.856Z,11.2
2018-06-23T02:52:46.287Z,11.2
2018-06-23T02:53:35.683Z,11.2
2018-06-23T02:54:26.343Z,11.2
2018-06-23T02:55:16.143Z,11.2
2018-06-23T02:56:06.486Z,11.2
2018-06-23T02:56:56.517Z,11.1
2018-06-23T02:57:45.745Z,11.2
2018-06-23T02:58:36.382Z,11.1
2018-06-23T02:59:26.160Z,11.2
2018-06-23T03:00:16.777Z,11.1
2018-06-23T03:01:06.008Z,11.1
2018-06-23T03:01:56.315Z,11.1
2018-06-23T03:02:46.682Z,11.1
2018-06-23T03:03:36.732Z,11.1
2018-06-23T03:04:26.524Z,11
2018-06-23T03:05:17.132Z,11
2018-06-23T03:06:06.979Z,10.9
2018-06-23T03:06:56.722Z,10.9
2018-06-23T03:07:47.355Z,10.9
2018-06-23T03:08:37.403Z,10.9
2018-06-23T03:09:27.483Z,10.9
2018-06-23T03:10:17.260Z,10.9
2018-06-23T03:11:07.049Z,10.9
2018-06-23T03:11:57.437Z,11
2018-06-23T03:12:47.741Z,11
2018-06-23T03:13:37.787Z,10.9
2018-06-23T03:14:27.298Z,11
2018-06-23T03:15:17.639Z,11
2018-06-23T03:16:07.967Z,11
2018-06-23T03:16:57.469Z,11
2018-06-23T03:17:48.081Z,11
2018-06-23T03:18:37.903Z,10.9
2018-06-23T03:19:28.224Z,10.9
2018-06-23T03:20:17.719Z,10.9
2018-06-23T03:21:08.085Z,11
2018-06-23T03:21:58.140Z,10.9
2018-06-23T03:22:48.449Z,10.9
2018-06-23T03:23:38.228Z,10.9
2018-06-23T03:24:28.026Z,10.9
2018-06-23T03:25:18.792Z,10.9
2018-06-23T03:26:08.706Z,10.9
2018-06-23T03:26:58.515Z,10.9
2018-06-23T03:27:48.552Z,10.9
2018-06-23T03:28:38.637Z,10.9
2018-06-23T03:29:28.125Z,10.9
2018-06-23T03:30:19.092Z,10.9
2018-06-23T03:31:09.165Z,10.9
2018-06-23T03:31:58.648Z,10.9
2018-06-23T03:32:48.967Z,10.9
2018-06-23T03:33:38.997Z,10.9
2018-06-23T03:34:29.072Z,10.9
2018-06-23T03:35:19.130Z,10.9
2018-06-23T03:36:09.189Z,10.9
2018-06-23T03:36:59.260Z,10.9
2018-06-23T03:37:49.647Z,10.9
2018-06-23T03:38:39.630Z,10.9
2018-06-23T03:39:29.158Z,10.9
2018-06-23T03:40:19.768Z,10.9
2018-06-23T03:41:09.862Z,10.9
2018-06-23T03:41:59.323Z,10.9
2018-06-23T03:42:49.957Z,11
2018-06-23T03:43:40.074Z,11
2018-06-23T03:44:29.515Z,11
2018-06-23T03:45:19.853Z,11.1
2018-06-23T03:46:09.662Z,11.1
2018-06-23T03:47:00.275Z,11.1
2018-06-23T03:47:50.369Z,11.1
2018-06-23T03:48:39.878Z,11.1
2018-06-23T03:49:30.458Z,11.1
2018-06-23T03:50:20.264Z,11.1
2018-06-23T03:51:10.378Z,11.1
2018-06-23T03:52:00.390Z,11.1
2018-06-23T03:52:50.435Z,11.1
2018-06-23T03:53:40.223Z,11.1
2018-06-23T03:54:30.582Z,11.1
2018-06-23T03:55:20.921Z,11.1
2018-06-23T03:56:10.983Z,11.1
2018-06-23T03:57:00.491Z,11.1
2018-06-23T03:57:50.795Z,11.1
2018-06-23T03:58:41.170Z,11.1
2018-06-23T03:59:31.218Z,11.1
2018-06-23T04:00:21.023Z,11.1
2018-06-23T04:01:11.355Z,11.1
2018-06-23T04:02:01.416Z,11.1
2018-06-23T04:02:51.480Z,11.1
2018-06-23T04:03:41.540Z,11.1
2018-06-23T04:04:31.587Z,11.1
2018-06-23T04:05:21.688Z,11.1
2018-06-23T04:06:11.429Z,11.1
2018-06-23T04:07:01.640Z,11.1
2018-06-23T04:07:51.841Z,11.1
2018-06-23T04:08:41.349Z,11.1
2018-06-23T04:09:31.723Z,11.1
2018-06-23T04:10:22.042Z,11.2
2018-06-23T04:11:11.841Z,11.2
2018-06-23T04:12:02.171Z,11.2
2018-06-23T04:12:51.942Z,11.2
2018-06-23T04:13:42.271Z,11.1
2018-06-23T04:14:32.348Z,11.2
2018-06-23T04:15:22.426Z,11.2
2018-06-23T04:16:12.482Z,11.2
2018-06-23T04:17:02.541Z,11.2
2018-06-23T04:17:52.602Z,11.2
2018-06-23T04:18:42.645Z,11.2
2018-06-23T04:19:32.461Z,11.2
2018-06-23T04:20:22.540Z,11.2
2018-06-23T04:21:12.923Z,11.2
2018-06-23T04:22:02.651Z,11.2
2018-06-23T04:22:52.695Z,11.2
2018-06-23T04:23:43.062Z,11.3
2018-06-23T04:24:32.553Z,11.2
2018-06-23T04:25:22.594Z,11.2
2018-06-23T04:26:12.937Z,11.2
2018-06-23T04:27:03.019Z,11.2
2018-06-23T04:27:53.351Z,11.3
2018-06-23T04:28:43.102Z,11.3
2018-06-23T04:29:33.462Z,11.3
2018-06-23T04:30:23.237Z,11.3
2018-06-23T04:31:13.603Z,11.3
2018-06-23T04:32:03.667Z,11.3
2018-06-23T04:32:53.717Z,11.3
2018-06-23T04:33:43.497Z,11.3
2018-06-23T04:34:33.582Z,11.3
2018-06-23T04:35:23.905Z,11.3
2018-06-23T04:36:13.988Z,11.3
2018-06-23T04:37:04.030Z,11.3
2018-06-23T04:37:54.105Z,11.3
2018-06-23T04:38:43.963Z,11.3
2018-06-23T04:39:33.664Z,11.2
2018-06-23T04:40:24.309Z,11.2
2018-06-23T04:41:14.331Z,11.2
2018-06-23T04:42:04.444Z,11.2
2018-06-23T04:42:54.279Z,11.1
2018-06-23T04:43:43.999Z,11.1
2018-06-23T04:44:34.603Z,11.1
2018-06-23T04:45:24.380Z,10.9
2018-06-23T04:46:14.713Z,10.9
2018-06-23T04:47:04.802Z,10.9
2018-06-23T04:47:54.280Z,10.9
2018-06-23T04:48:44.930Z,10.8
2018-06-23T04:49:34.405Z,10.8
2018-06-23T04:50:24.752Z,10.6
2018-06-23T04:51:14.846Z,10.6
2018-06-23T04:52:04.580Z,10.6
2018-06-23T04:52:54.954Z,10.5
2018-06-23T04:53:44.728Z,10.5
2018-06-23T04:54:35.082Z,10.4
2018-06-23T04:55:25.120Z,10.4
2018-06-23T04:56:15.458Z,10.4
2018-06-23T04:57:05.251Z,10.4
2018-06-23T04:57:55.671Z,10.3
2018-06-23T04:58:45.401Z,10.3
2018-06-23T04:59:35.728Z,10.3
2018-06-23T05:00:26.090Z,10.2
2018-06-23T05:01:15.885Z,10.2
2018-06-23T05:02:05.885Z,10.3
2018-06-23T05:02:55.402Z,10.3
2018-06-23T05:03:46.020Z,10.3
2018-06-23T05:04:35.260Z,10.3
2018-06-23T05:05:25.895Z,10.3
2018-06-23T05:06:15.948Z,10.3
2018-06-23T05:07:06.035Z,10.3
2018-06-23T05:07:56.327Z,10.3
2018-06-23T05:08:46.464Z,10.3
2018-06-23T05:09:36.461Z,10.3
2018-06-23T05:10:25.981Z,10.4
2018-06-23T05:11:16.599Z,10.4
2018-06-23T05:12:06.121Z,10.4
2018-06-23T05:12:56.170Z,10.4
2018-06-23T05:13:46.793Z,10.4
2018-06-23T05:14:36.571Z,10.4
2018-06-23T05:15:26.692Z,10.3
2018-06-23T05:16:17.016Z,10.3
2018-06-23T05:17:06.765Z,10.3
2018-06-23T05:17:56.854Z,10.3
2018-06-23T05:18:47.091Z,10.3
2018-06-23T05:19:36.655Z,10.3
2018-06-23T05:20:27.343Z,10.3
2018-06-23T05:21:17.352Z,10.3
2018-06-23T05:22:07.440Z,10.2
2018-06-23T05:22:57.468Z,10.2
2018-06-23T05:23:47.572Z,10.1
2018-06-23T05:24:37.614Z,10.1
2018-06-23T05:25:27.117Z,10.1
2018-06-23T05:26:17.517Z,10.1
2018-06-23T05:27:06.972Z,10.1
2018-06-23T05:27:57.855Z,10.1
2018-06-23T05:28:47.934Z,10.1
2018-06-23T05:29:37.969Z,10.1
2018-06-23T05:30:28.181Z,10.1
2018-06-23T05:31:18.129Z,10.2
2018-06-23T05:32:07.889Z,10.2
2018-06-23T05:32:57.720Z,10.2
2018-06-23T05:33:47.748Z,10.2
2018-06-23T05:34:38.112Z,10.2
2018-06-23T05:35:27.863Z,10.1
2018-06-23T05:36:18.520Z,10.1
2018-06-23T05:37:08.580Z,10.1
2018-06-23T05:37:58.357Z,10.1
2018-06-23T05:38:48.673Z,10.1
2018-06-23T05:39:37.892Z,10.1
2018-06-23T05:40:28.815Z,10.1
2018-06-23T05:41:18.886Z,10.1
2018-06-23T05:42:08.117Z,10.1
2018-06-23T05:42:58.726Z,10.1
2018-06-23T05:43:48.789Z,10.1
2018-06-23T05:44:39.137Z,10.1
2018-06-23T05:45:28.898Z,10.1
2018-06-23T05:46:18.963Z,10.1
2018-06-23T05:47:09.302Z,10.1
2018-06-23T05:47:59.353Z,10.1
2018-06-23T05:48:49.463Z,10.1
2018-06-23T05:49:39.495Z,10.1
2018-06-23T05:50:29.275Z,10
2018-06-23T05:51:20.061Z,9.9
2018-06-23T05:52:09.424Z,9.9
2018-06-23T05:52:59.456Z,9.9
2018-06-23T05:53:49.818Z,9.9
2018-06-23T05:54:39.311Z,9.8
2018-06-23T05:55:29.649Z,9.8
2018-06-23T05:56:20.055Z,9.8
2018-06-23T05:57:10.061Z,9.8
2018-06-23T05:57:59.258Z,9.8
2018-06-23T05:58:50.172Z,9.8
2018-06-23T05:59:40.292Z,9.7
2018-06-23T06:00:30.293Z,9.6
2018-06-23T06:01:20.100Z,9.6
2018-06-23T06:02:10.464Z,9.6
2018-06-23T06:03:00.493Z,9.6
2018-06-23T06:03:50.592Z,9.6
2018-06-23T06:04:40.392Z,9.6
2018-06-23T06:05:30.406Z,9.6
2018-06-23T06:06:20.767Z,9.5
2018-06-23T06:07:10.855Z,9.5
2018-06-23T06:08:00.897Z,9.5
2018-06-23T06:08:50.922Z,9.6
2018-06-23T06:09:41.007Z,9.6
2018-06-23T06:10:30.785Z,9.6
2018-06-23T06:11:20.854Z,9.6
2018-06-23T06:12:10.962Z,9.6
2018-06-23T06:13:01.274Z,9.6
2018-06-23T06:13:51.338Z,9.7
2018-06-23T06:14:41.363Z,9.7
2018-06-23T06:15:31.219Z,9.8
2018-06-23T06:16:21.511Z,9.8
2018-06-23T06:17:11.577Z,9.8
2018-06-23T06:18:01.362Z,9.9
2018-06-23T06:18:51.680Z,9.9
2018-06-23T06:19:41.757Z,9.9
2018-06-23T06:20:31.530Z,10.1
2018-06-23T06:21:21.857Z,10.1
2018-06-23T06:22:11.675Z,10.1
2018-06-23T06:23:01.753Z,10.1
2018-06-23T06:23:52.695Z,10.2
2018-06-23T06:24:41.836Z,10.3
2018-06-23T06:25:31.363Z,10.3
2018-06-23T06:26:22.249Z,10.3
2018-06-23T06:27:12.347Z,10.4
2018-06-23T06:28:02.103Z,10.4
2018-06-23T06:28:52.504Z,10.5
2018-06-23T06:29:41.983Z,10.6
2018-06-23T06:30:32.572Z,10.6
2018-06-23T06:31:22.645Z,10.6
2018-06-23T06:32:12.426Z,10.6
2018-06-23T06:33:02.477Z,10.6
2018-06-23T06:33:52.855Z,10.7
2018-06-23T06:34:42.914Z,10.7
2018-06-23T06:35:32.837Z,10.8
2018-06-23T06:36:23.022Z,10.9
2018-06-23T06:37:12.818Z,10.8
2018-06-23T06:38:02.332Z,10.9
2018-06-23T06:38:53.239Z,10.9
2018-06-23T06:39:43.268Z,11
2018-06-23T06:40:33.356Z,11.1
2018-06-23T06:41:23.385Z,11.1
2018-06-23T06:42:13.183Z,11.1
2018-06-23T06:43:03.260Z,11.1
2018-06-23T06:43:53.602Z,11.2
2018-06-23T06:44:43.404Z,11.3
2018-06-23T06:45:33.467Z,11.3
2018-06-23T06:46:23.255Z,11.2
2018-06-23T06:47:13.083Z,11.3
2018-06-23T06:48:03.629Z,11.3
2018-06-23T06:48:53.962Z,11.4
2018-06-23T06:49:43.495Z,11.4
2018-06-23T06:50:33.538Z,11.5
2018-06-23T06:51:23.899Z,11.6
2018-06-23T06:52:14.290Z,11.6
2018-06-23T06:53:04.012Z,11.7
2018-06-23T06:53:54.349Z,11.7
2018-06-23T06:54:44.423Z,11.8
2018-06-23T06:55:34.460Z,11.8
2018-06-23T06:56:24.587Z,11.8
2018-06-23T06:57:15.193Z,11.8
2018-06-23T06:58:04.666Z,11.9
2018-06-23T06:58:54.722Z,11.9
2018-06-23T06:59:44.293Z,11.9
2018-06-23T07:00:34.849Z,11.9
2018-06-23T07:01:24.642Z,12
2018-06-23T07:02:14.995Z,12.1
2018-06-23T07:03:04.479Z,12.1
2018-06-23T07:03:55.101Z,12.1
2018-06-23T07:04:45.188Z,12.2
2018-06-23T07:05:35.253Z,12.3
2018-06-23T07:06:24.736Z,12.3
2018-06-23T07:07:15.356Z,12.4
2018-06-23T07:08:05.433Z,12.7
2018-06-23T07:08:55.465Z,12.8
2018-06-23T07:09:45.270Z,12.7
2018-06-23T07:10:35.343Z,12.6
2018-06-23T07:11:25.132Z,12.5
2018-06-23T07:12:15.748Z,12.6
2018-06-23T07:13:05.813Z,12.7
2018-06-23T07:13:55.872Z,12.8
2018-06-23T07:14:45.630Z,12.7
2018-06-23T07:15:35.875Z,12.7
2018-06-23T07:16:26.043Z,12.7
2018-06-23T07:17:16.122Z,12.8
2018-06-23T07:18:06.157Z,12.6
2018-06-23T07:18:56.211Z,12.7
2018-06-23T07:19:45.704Z,12.8
2018-06-23T07:20:36.331Z,12.8
2018-06-23T07:21:26.405Z,12.9
2018-06-23T07:22:15.971Z,13
2018-06-23T07:23:06.521Z,12.9
2018-06-23T07:23:57.602Z,12.9
2018-06-23T07:24:46.388Z,12.9
2018-06-23T07:25:36.164Z,13
2018-06-23T07:26:26.775Z,13.1
2018-06-23T07:27:16.847Z,13.2
2018-06-23T07:28:06.911Z,13.3
2018-06-23T07:28:56.964Z,13.4
2018-06-23T07:29:46.757Z,13.3
2018-06-23T07:30:37.142Z,13
2018-06-23T07:31:26.858Z,12.9
2018-06-23T07:32:16.963Z,12.8
2018-06-23T07:33:07.007Z,12.8
2018-06-23T07:33:56.802Z,13
2018-06-23T07:34:47.545Z,13.1
2018-06-23T07:35:36.613Z,13.2
2018-06-23T07:36:27.510Z,13.3
2018-06-23T07:37:17.335Z,13.4
2018-06-23T07:38:07.648Z,13.6
2018-06-23T07:38:57.719Z,13.5
2018-06-23T07:39:47.511Z,13.4
2018-06-23T07:40:37.838Z,13.4
2018-06-23T07:41:27.926Z,13.5
2018-06-23T07:42:17.719Z,13.5
2018-06-23T07:43:07.770Z,13.6
2018-06-23T07:43:57.841Z,13.7
2018-06-23T07:44:47.902Z,13.6
2018-06-23T07:45:37.685Z,13.7
2018-06-23T07:46:28.076Z,13.6
2018-06-23T07:47:18.394Z,13.6
2018-06-23T07:48:08.410Z,13.8
2018-06-23T07:48:58.181Z,13.7
2018-06-23T07:49:48.518Z,13.6
2018-06-23T07:50:38.318Z,13.8
2018-06-23T07:51:28.691Z,13.8
2018-06-23T07:52:18.728Z,13.9
2018-06-23T07:53:08.533Z,14.1
2018-06-23T07:53:58.000Z,14.2
2018-06-23T07:54:48.643Z,14.1
2018-06-23T07:55:38.718Z,14.1
2018-06-23T07:56:29.048Z,13.8
2018-06-23T07:57:19.081Z,13.8
2018-06-23T07:58:09.135Z,13.8
2018-06-23T07:58:58.914Z,13.9
2018-06-23T07:59:48.437Z,13.8
2018-06-23T08:00:39.080Z,14
2018-06-23T08:01:29.505Z,13.9
2018-06-23T08:02:19.444Z,13.8
2018-06-23T08:03:09.525Z,13.8
2018-06-23T08:03:59.289Z,13.7
2018-06-23T08:04:49.345Z,13.8
2018-06-23T08:05:39.162Z,14.1
2018-06-23T08:06:29.509Z,14
2018-06-23T08:07:19.859Z,14.1
2018-06-23T08:08:09.909Z,14.1
2018-06-23T08:08:59.677Z,13.8
2018-06-23T08:09:49.727Z,13.7
2018-06-23T08:10:40.075Z,13.8
2018-06-23T08:11:30.136Z,14
2018-06-23T08:12:19.921Z,14
2018-06-23T08:13:10.252Z,13.9
2018-06-23T08:14:00.352Z,13.8
2018-06-23T08:14:50.391Z,13.6
2018-06-23T08:15:39.887Z,13.8
2018-06-23T08:16:30.520Z,13.9
2018-06-23T08:17:20.335Z,14.1
2018-06-23T08:18:10.646Z,14.3
2018-06-23T08:19:00.675Z,14.4
2018-06-23T08:19:50.823Z,14.6
2018-06-23T08:20:40.286Z,14.6
2018-06-23T08:21:30.901Z,14.7
2018-06-23T08:22:20.669Z,14.8
2018-06-23T08:23:10.768Z,15.1
2018-06-23T08:24:00.636Z,14.9
2018-06-23T08:24:51.157Z,14.8
2018-06-23T08:25:40.933Z,14.8
2018-06-23T08:26:32.114Z,14.8
2018-06-23T08:27:21.325Z,14.8
2018-06-23T08:28:11.136Z,14.8
2018-06-23T08:29:01.430Z,15
2018-06-23T08:29:51.598Z,15.1
2018-06-23T08:30:41.575Z,15.1
2018-06-23T08:31:31.643Z,15.1
2018-06-23T08:32:21.675Z,15.1
2018-06-23T08:33:11.747Z,15.4
2018-06-23T08:34:01.524Z,15.3
2018-06-23T08:34:51.855Z,15.3
2018-06-23T08:35:41.400Z,15.4
2018-06-23T08:36:31.986Z,15.3
2018-06-23T08:37:21.905Z,14.9
2018-06-23T08:38:11.849Z,14.8
2018-06-23T08:39:02.168Z,14.6
2018-06-23T08:39:52.258Z,14.6
2018-06-23T08:40:42.297Z,14.6
2018-06-23T08:41:32.365Z,14.9
2018-06-23T08:42:22.443Z,15.2
2018-06-23T08:43:12.507Z,15.2
2018-06-23T08:44:02.566Z,15.1
2018-06-23T08:44:52.350Z,15.3
2018-06-23T08:45:42.673Z,15.4
2018-06-23T08:46:32.755Z,15.1
2018-06-23T08:47:22.843Z,15.3
2018-06-23T08:48:12.927Z,15.7
2018-06-23T08:49:03.091Z,15.6
2018-06-23T08:49:53.016Z,15.7
2018-06-23T08:50:42.791Z,15.6
2018-06-23T08:51:32.883Z,15.9
2018-06-23T08:52:23.167Z,16.3
2018-06-23T08:53:12.979Z,16.4
2018-06-23T08:54:02.740Z,16.5
2018-06-23T08:54:53.405Z,16.3
2018-06-23T08:55:43.439Z,16.3
2018-06-23T08:56:32.946Z,16.3
2018-06-23T08:57:23.549Z,16.4
2018-06-23T08:58:12.804Z,16.4
2018-06-23T08:59:03.142Z,16.4
2018-06-23T08:59:53.487Z,16.5
2018-06-23T09:00:43.800Z,16.6
2018-06-23T09:01:33.881Z,16.8
2018-06-23T09:02:23.925Z,16.6
2018-06-23T09:03:13.708Z,16.9
2018-06-23T09:04:04.061Z,17.1
2018-06-23T09:04:54.122Z,17.4
2018-06-23T09:05:44.199Z,17.1
2018-06-23T09:06:34.247Z,17.1
2018-06-23T09:07:23.493Z,17.4
2018-06-23T09:08:13.850Z,17.1
2018-06-23T09:09:04.481Z,17.3
2018-06-23T09:10:44.282Z,16.7
2018-06-23T09:11:34.635Z,16.8
2018-06-23T09:12:24.740Z,16.8
2018-06-23T09:13:14.483Z,16.4
2018-06-23T09:14:04.830Z,16.3
2018-06-23T09:14:54.900Z,16.6
2018-06-23T09:15:44.945Z,16.7
2018-06-23T09:16:35.020Z,16.6
2018-06-23T09:17:24.817Z,16.9
2018-06-23T09:18:14.868Z,16.8
2018-06-23T09:19:04.637Z,17.1
2018-06-23T09:19:55.281Z,17.4
2018-06-23T09:20:45.318Z,17.4
2018-06-23T09:21:34.835Z,17.6
2018-06-23T09:22:25.261Z,17.3
2018-06-23T09:23:14.758Z,17.3
2018-06-23T09:24:05.578Z,17.4
2018-06-23T09:24:54.907Z,17.2
2018-06-23T09:25:45.543Z,17.5
2018-06-23T09:26:35.774Z,17.6
2018-06-23T09:27:25.533Z,17.3
2018-06-23T09:28:15.877Z,17.2
2018-06-23T09:29:05.938Z,17.2
2018-06-23T09:29:55.759Z,17.1
2018-06-23T09:30:45.535Z,17.2
2018-06-23T09:31:35.870Z,17.6
2018-06-23T09:32:26.208Z,17.7
2018-06-23T09:33:16.278Z,17.5
2018-06-23T09:34:06.339Z,17.5
2018-06-23T09:34:55.833Z,17.7
2018-06-23T09:35:46.486Z,17.6
2018-06-23T09:36:36.022Z,17.9
2018-06-23T09:37:26.313Z,17.8
2018-06-23T09:38:16.666Z,17.6
2018-06-23T09:39:06.713Z,17.4
2018-06-23T09:39:56.230Z,16.9
2018-06-23T09:40:46.289Z,16.9
2018-06-23T09:42:26.695Z,17.4
2018-06-23T09:43:17.034Z,17.3
2018-06-23T09:44:06.803Z,17.6
2018-06-23T09:44:56.604Z,17.4
2018-06-23T09:45:47.390Z,17.6
2018-06-23T09:46:37.284Z,17.5
2018-06-23T09:47:27.350Z,17.7
2018-06-23T09:48:17.401Z,17.4
2018-06-23T09:49:07.542Z,17.9
2018-06-23T09:49:57.540Z,17.9
2018-06-23T09:50:47.046Z,18.1
2018-06-23T09:51:37.407Z,18.1
2018-06-23T09:52:27.173Z,17.8
2018-06-23T09:53:17.501Z,17.4
2018-06-23T09:54:07.599Z,17.5
2018-06-23T09:54:57.653Z,17.6
2018-06-23T09:55:48.247Z,17.7
2018-06-23T09:56:38.083Z,17.8
2018-06-23T09:57:27.829Z,17.9
2018-06-23T09:58:17.920Z,18.3
2018-06-23T09:59:08.223Z,18.2
2018-06-23T09:59:58.280Z,18
2018-06-23T10:00:47.820Z,18.2
2018-06-23T10:01:38.143Z,18.2
2018-06-23T10:02:28.224Z,18.3
2018-06-23T10:03:19.036Z,18.4
2018-06-23T10:04:08.102Z,18.3
2018-06-23T10:04:58.402Z,18.5
2018-06-23T10:05:48.757Z,18.6
2018-06-23T10:06:38.792Z,18.4
2018-06-23T10:07:28.857Z,18.3
2018-06-23T10:08:18.924Z,18.1
2018-06-23T10:09:08.979Z,18.3
2018-06-23T10:09:59.029Z,17.9
2018-06-23T10:10:49.105Z,17.6
2018-06-23T10:11:38.627Z,17.8
2018-06-23T10:12:28.971Z,17.8
2018-06-23T10:13:19.311Z,18.1
2018-06-23T10:14:09.104Z,18.4
2018-06-23T10:14:59.404Z,18.6
2018-06-23T10:15:49.225Z,19.3
2018-06-23T10:16:39.570Z,19
2018-06-23T10:17:29.351Z,18.8
2018-06-23T10:18:18.724Z,18.6
2018-06-23T10:19:09.731Z,18.5
2018-06-23T10:19:59.259Z,18.4
2018-06-23T10:20:49.584Z,19.1
2018-06-23T10:21:40.087Z,19.3
2018-06-23T10:22:29.986Z,19
2018-06-23T10:23:20.083Z,19.3
2018-06-23T10:24:09.842Z,19.3
2018-06-23T10:24:59.913Z,19.6
2018-06-23T10:25:50.230Z,19.9
2018-06-23T10:26:39.745Z,19.6
2018-06-23T10:27:30.953Z,19.9
2018-06-23T10:28:20.162Z,19.4
2018-06-23T10:29:10.193Z,19.2
2018-06-23T10:30:00.605Z,19.3
2018-06-23T10:30:50.330Z,19.6
2018-06-23T10:31:40.399Z,19.6
2018-06-23T10:32:30.733Z,19.6
2018-06-23T10:33:20.516Z,19.6
2018-06-23T10:34:10.873Z,20.2
2018-06-23T10:35:00.372Z,20.1
2018-06-23T10:35:50.989Z,20.2
2018-06-23T10:36:40.778Z,19.9
2018-06-23T10:37:31.106Z,19.8
2018-06-23T10:38:21.412Z,19.8
2018-06-23T10:39:11.290Z,20
2018-06-23T10:40:01.967Z,19.9
2018-06-23T10:40:51.103Z,19.7
2018-06-23T10:41:41.436Z,19.4
2018-06-23T10:42:31.514Z,19.8
2018-06-23T10:43:21.558Z,19.9
2018-06-23T10:44:11.677Z,20.1
2018-06-23T10:45:01.118Z,20
2018-06-23T10:45:51.455Z,20.1
2018-06-23T10:46:41.625Z,19.9
2018-06-23T10:47:31.321Z,19.7
2018-06-23T10:48:21.945Z,20.1
2018-06-23T10:49:12.010Z,20.4
2018-06-23T10:50:01.518Z,20.3
2018-06-23T10:50:51.583Z,20.1
2018-06-23T10:51:41.625Z,20
2018-06-23T10:52:31.961Z,20.4
2018-06-23T10:53:22.323Z,20.6
2018-06-23T10:54:12.408Z,20.8
2018-06-23T10:55:02.166Z,21.1
2018-06-23T10:55:51.673Z,20
2018-06-23T10:56:42.280Z,19.6
2018-06-23T10:57:32.375Z,19.3
2018-06-23T10:58:22.708Z,19.5
2018-06-23T10:59:12.754Z,20.3
2018-06-23T11:00:02.298Z,20.8
2018-06-23T11:00:52.876Z,21.4
2018-06-23T11:01:42.398Z,21
2018-06-23T11:02:32.994Z,20.6
2018-06-23T11:03:23.083Z,20.4
2018-06-23T11:04:12.868Z,20.3
2018-06-23T11:05:04.189Z,20.3
2018-06-23T11:05:53.319Z,20
2018-06-23T11:06:43.078Z,20.4
2018-06-23T11:07:33.113Z,20.6
2018-06-23T11:08:23.446Z,20.6
2018-06-23T11:09:13.507Z,20.4
2018-06-23T11:10:03.613Z,20.5